createdAt,value
2022-11-19T00:02:07.138Z,84
2022-11-19T00:05:32.301Z,84
2022-11-19T00:08:57.511Z,85
2022-11-19T00:12:22.739Z,85
2022-11-19T00:15:47.930Z,85
2022-11-19T00:19:13.138Z,85
2022-11-19T00:22:38.325Z,86
2022-11-19T00:26:03.533Z,87
2022-11-19T00:29:28.750Z,88
2022-11-19T00:32:53.913Z,88
2022-11-19T00:36:19.117Z,87
2022-11-19T00:39:44.331Z,88
2022-11-19T00:43:09.523Z,88
2022-11-19T00:46:34.759Z,89
2022-11-19T00:49:59.943Z,88
2022-11-19T00:53:25.137Z,88
2022-11-19T00:56:50.368Z,87
2022-11-19T01:00:15.565Z,88
2022-11-19T01:03:40.799Z,87
2022-11-19T01:07:06.069Z,87
2022-11-19T01:10:31.220Z,87
2022-11-19T01:13:56.421Z,88
2022-11-19T01:17:21.615Z,88
2022-11-19T01:20:46.910Z,86
2022-11-19T01:24:12.027Z,86
2022-11-19T01:27:37.229Z,85
2022-11-19T01:31:02.430Z,86
2022-11-19T01:34:27.635Z,86
2022-11-19T01:37:52.860Z,87
2022-11-19T01:41:18.028Z,88
2022-11-19T01:44:43.232Z,87
2022-11-19T01:48:08.433Z,87
2022-11-19T01:51:33.656Z,88
2022-11-19T01:54:58.885Z,89
2022-11-19T01:58:24.049Z,87
2022-11-19T02:01:49.299Z,87
2022-11-19T02:05:14.458Z,86
2022-11-19T02:08:39.637Z,85
2022-11-19T02:12:04.868Z,87
2022-11-19T02:15:30.060Z,87
2022-11-19T02:18:55.270Z,86
2022-11-19T02:22:20.472Z,87
2022-11-19T02:25:45.681Z,88
2022-11-19T02:29:10.891Z,86
2022-11-19T02:32:36.063Z,86
2022-11-19T02:36:01.262Z,84
2022-11-19T02:39:26.464Z,85
2022-11-19T02:42:51.658Z,84
2022-11-19T02:46:16.905Z,84
2022-11-19T02:49:42.091Z,84
2022-11-19T02:53:07.301Z,84
2022-11-19T02:56:32.502Z,84
2022-11-19T02:59:57.703Z,83
2022-11-19T03:03:23.037Z,83
2022-11-19T03:06:48.080Z,83
2022-11-19T03:10:13.289Z,83
2022-11-19T03:13:38.493Z,84
2022-11-19T03:17:03.677Z,83
2022-11-19T03:20:28.892Z,84
2022-11-19T03:23:54.059Z,83
2022-11-19T03:27:19.263Z,85
2022-11-19T03:30:44.480Z,85
2022-11-19T03:34:09.689Z,84
2022-11-19T03:37:34.900Z,86
2022-11-19T03:41:00.099Z,85
2022-11-19T03:44:25.286Z,84
2022-11-19T03:47:50.498Z,84
2022-11-19T03:51:15.706Z,84
2022-11-19T03:54:40.922Z,83
2022-11-19T03:58:06.108Z,82
2022-11-19T04:01:31.367Z,82
2022-11-19T04:04:56.534Z,83
2022-11-19T04:08:21.718Z,84
2022-11-19T04:15:08.903Z,85
2022-11-19T04:18:34.081Z,85
2022-11-19T04:21:59.313Z,84
2022-11-19T04:25:24.532Z,84
2022-11-19T04:28:49.712Z,84
2022-11-19T04:32:14.951Z,84
2022-11-19T04:35:40.148Z,85
2022-11-19T04:39:05.355Z,84
2022-11-19T04:42:30.545Z,85
2022-11-19T04:45:55.740Z,85
2022-11-19T04:49:21.243Z,85
2022-11-19T04:52:46.157Z,85
2022-11-19T04:56:11.361Z,84
2022-11-19T04:59:36.561Z,84
2022-11-19T05:03:01.742Z,84
2022-11-19T05:06:26.974Z,84
2022-11-19T05:09:52.149Z,83
2022-11-19T05:13:17.360Z,83
2022-11-19T05:16:42.558Z,83
2022-11-19T05:20:07.783Z,83
2022-11-19T05:23:33.084Z,84
2022-11-19T05:26:58.164Z,84
2022-11-19T05:30:23.371Z,84
2022-11-19T05:33:48.578Z,83
2022-11-19T05:37:13.816Z,84
2022-11-19T05:40:39.146Z,84
2022-11-19T05:44:04.231Z,83
2022-11-19T05:47:29.425Z,84
2022-11-19T05:50:54.648Z,84
2022-11-19T05:54:19.917Z,85
2022-11-19T05:57:45.070Z,86
2022-11-19T06:01:10.255Z,86
2022-11-19T06:04:35.464Z,85
2022-11-19T06:08:01.329Z,85
2022-11-19T06:11:26.559Z,84
2022-11-19T06:14:51.788Z,84
2022-11-19T06:18:16.961Z,84
2022-11-19T06:21:42.232Z,85
2022-11-19T06:25:07.401Z,86
2022-11-19T06:28:32.588Z,86
2022-11-19T06:31:57.811Z,86
2022-11-19T06:35:22.986Z,84
2022-11-19T06:38:48.173Z,83
2022-11-19T06:42:13.387Z,83
2022-11-19T06:45:38.570Z,84
2022-11-19T06:49:03.811Z,83
2022-11-19T06:52:29.041Z,83
2022-11-19T06:55:54.226Z,82
2022-11-19T06:59:19.501Z,82
2022-11-19T07:02:44.655Z,84
2022-11-19T07:06:09.889Z,85
2022-11-19T07:09:35.064Z,85
2022-11-19T07:13:00.286Z,85
2022-11-19T07:16:25.486Z,85
2022-11-19T07:19:50.720Z,85
2022-11-19T07:23:15.944Z,85
2022-11-19T07:26:41.165Z,84
2022-11-19T07:30:06.391Z,83
2022-11-19T07:33:31.616Z,84
2022-11-19T07:36:56.873Z,85
2022-11-19T07:40:22.144Z,86
2022-11-19T07:43:47.344Z,86
2022-11-19T07:47:12.586Z,87
2022-11-19T07:50:37.810Z,87
2022-11-19T07:54:03.119Z,86
2022-11-19T07:57:30.358Z,86
2022-11-19T08:00:53.543Z,85
2022-11-19T08:04:18.752Z,86
2022-11-19T08:07:43.996Z,85
2022-11-19T08:11:09.178Z,84
2022-11-19T08:14:34.399Z,83
2022-11-19T08:17:59.582Z,82
2022-11-19T08:21:24.815Z,82
2022-11-19T08:24:50.094Z,81
2022-11-19T08:28:15.388Z,84
2022-11-19T08:31:40.618Z,86
2022-11-19T08:35:05.842Z,87
2022-11-19T08:38:34.582Z,85
2022-11-19T08:41:56.243Z,86
2022-11-19T08:45:21.451Z,87
2022-11-19T08:48:46.667Z,86
2022-11-19T08:52:11.864Z,84
2022-11-19T08:55:37.078Z,84
2022-11-19T08:59:03.085Z,85
2022-11-19T09:02:27.480Z,84
2022-11-19T09:05:52.708Z,84
2022-11-19T09:09:17.900Z,83
2022-11-19T09:12:43.121Z,84
2022-11-19T09:16:08.355Z,83
2022-11-19T09:19:33.616Z,84
2022-11-19T09:22:58.892Z,83
2022-11-19T09:26:24.122Z,83
2022-11-19T09:29:49.365Z,83
2022-11-19T09:33:14.591Z,83
2022-11-19T09:36:39.788Z,82
2022-11-19T09:40:05.067Z,82
2022-11-19T09:43:30.239Z,83
2022-11-19T09:46:55.446Z,82
2022-11-19T09:50:20.748Z,81
2022-11-19T09:53:45.952Z,81
2022-11-19T09:57:11.339Z,82
2022-11-19T10:00:36.449Z,82
2022-11-19T10:04:01.736Z,82
2022-11-19T10:07:26.963Z,83
2022-11-19T10:10:52.199Z,83
2022-11-19T10:14:17.866Z,83
2022-11-19T10:17:42.667Z,81
2022-11-19T10:21:07.948Z,80
2022-11-19T10:24:33.193Z,80
2022-11-19T10:27:58.440Z,81
2022-11-19T10:31:23.761Z,81
2022-11-19T10:34:48.954Z,81
2022-11-19T10:38:14.208Z,81
2022-11-19T10:41:39.462Z,81
2022-11-19T10:45:04.798Z,81
2022-11-19T10:48:30.011Z,82
2022-11-19T10:51:55.261Z,81
2022-11-19T10:55:20.518Z,81
2022-11-19T10:58:45.826Z,81
2022-11-19T11:02:11.086Z,82
2022-11-19T11:05:36.351Z,82
2022-11-19T11:09:01.582Z,83
2022-11-19T11:12:26.820Z,83
2022-11-19T11:15:52.115Z,81
2022-11-19T11:19:17.753Z,81
2022-11-19T11:22:42.571Z,81
2022-11-19T11:26:07.783Z,80
2022-11-19T11:29:33.003Z,80
2022-11-19T11:32:58.265Z,80
2022-11-19T11:36:23.489Z,80
2022-11-19T11:39:48.781Z,79
2022-11-19T11:43:14.039Z,77
2022-11-19T11:46:39.262Z,76
2022-11-19T11:50:04.505Z,77
2022-11-19T11:53:29.732Z,77
2022-11-19T11:56:54.967Z,76
2022-11-19T12:00:20.213Z,77
2022-11-19T12:03:54.818Z,77
2022-11-19T12:07:10.696Z,78
2022-11-19T12:10:35.884Z,77
2022-11-19T12:14:01.176Z,76
2022-11-19T12:17:26.377Z,75
2022-11-19T12:20:51.610Z,77
2022-11-19T12:24:16.881Z,75
2022-11-19T12:27:42.161Z,75
2022-11-19T12:31:07.416Z,78
2022-11-19T12:34:32.647Z,78
2022-11-19T12:37:57.858Z,77
2022-11-19T12:41:23.083Z,77
2022-11-19T12:44:48.302Z,77
2022-11-19T12:48:13.563Z,76
2022-11-19T12:51:38.758Z,78
2022-11-19T12:55:03.975Z,78
2022-11-19T12:58:29.222Z,79
2022-11-19T13:01:54.451Z,78
2022-11-19T13:05:19.704Z,78
2022-11-19T13:08:44.906Z,78
2022-11-19T13:12:10.148Z,75
2022-11-19T13:15:35.389Z,75
2022-11-19T13:19:00.599Z,77
2022-11-19T13:22:25.834Z,77
2022-11-19T13:25:51.052Z,77
2022-11-19T13:29:16.336Z,76
2022-11-19T13:32:41.589Z,75
2022-11-19T13:36:06.799Z,77
2022-11-19T13:39:32.234Z,77
2022-11-19T13:43:17.473Z,77
2022-11-19T13:46:22.687Z,75
2022-11-19T13:49:47.904Z,76
2022-11-19T13:53:13.189Z,78
2022-11-19T13:56:38.554Z,77
2022-11-19T14:00:03.771Z,77
2022-11-19T14:03:29.014Z,77
2022-11-19T14:06:54.232Z,77
2022-11-19T14:10:19.471Z,77
2022-11-19T14:13:44.715Z,78
2022-11-19T14:17:09.932Z,78
2022-11-19T14:20:35.179Z,77
2022-11-19T14:24:00.393Z,78
2022-11-19T14:27:25.680Z,79
2022-11-19T15:04:19.320Z,75
2022-11-19T15:07:44.356Z,75
2022-11-19T15:11:09.563Z,74
2022-11-19T15:14:38.560Z,75
2022-11-19T15:18:01.800Z,76
2022-11-19T15:21:25.392Z,76
2022-11-19T15:24:50.609Z,77
2022-11-19T15:28:15.886Z,78
2022-11-19T15:31:41.163Z,79
2022-11-19T15:35:11.155Z,77
2022-11-19T15:38:31.869Z,77
2022-11-19T15:41:57.125Z,77
2022-11-19T15:45:22.333Z,77
2022-11-19T15:48:47.553Z,77
2022-11-19T15:52:17.532Z,76
2022-11-19T15:55:38.205Z,76
2022-11-19T15:59:03.400Z,77
2022-11-19T16:02:28.672Z,76
2022-11-19T16:05:53.933Z,78
2022-11-19T16:09:19.557Z,76
2022-11-19T16:12:44.456Z,77
2022-11-19T16:16:09.653Z,76
2022-11-19T16:19:34.885Z,76
2022-11-19T16:23:00.144Z,76
2022-11-19T16:26:25.392Z,77
2022-11-19T16:29:50.620Z,76
2022-11-19T16:33:15.809Z,77
2022-11-19T16:36:41.103Z,76
2022-11-19T16:40:06.396Z,76
2022-11-19T16:43:31.606Z,76
2022-11-19T16:46:56.855Z,76
2022-11-19T16:50:22.078Z,75
2022-11-19T16:53:47.335Z,76
2022-11-19T16:57:12.555Z,74
2022-11-19T17:00:37.781Z,76
2022-11-19T17:04:03.082Z,76
2022-11-19T17:07:28.324Z,75
2022-11-19T17:10:53.546Z,77
2022-11-19T17:14:19.009Z,76
2022-11-19T17:17:44.085Z,77
2022-11-19T17:21:09.383Z,77
2022-11-19T17:24:34.583Z,76
2022-11-19T17:27:59.847Z,76
2022-11-19T17:31:25.125Z,75
2022-11-19T17:34:50.396Z,76
2022-11-19T17:38:15.668Z,76
2022-11-19T17:41:40.880Z,77
2022-11-19T17:45:10.531Z,77
2022-11-19T17:48:31.372Z,77
2022-11-19T17:51:56.644Z,75
2022-11-19T17:55:21.931Z,76
2022-11-19T17:58:47.150Z,75
2022-11-19T18:02:12.401Z,74
2022-11-19T18:05:37.621Z,75
2022-11-19T18:09:02.852Z,76
2022-11-19T18:12:28.149Z,76
2022-11-19T18:15:53.371Z,76
2022-11-19T18:19:18.886Z,77
2022-11-19T18:22:43.891Z,74
2022-11-19T18:26:09.171Z,75
2022-11-19T18:29:34.418Z,77
2022-11-19T18:32:59.634Z,78
2022-11-19T18:36:24.911Z,78
2022-11-19T18:39:51.385Z,80
2022-11-19T18:43:16.630Z,80
2022-11-19T18:46:41.905Z,80
2022-11-19T18:50:07.145Z,82
2022-11-19T18:53:32.383Z,82
2022-11-19T18:56:57.624Z,81
2022-11-19T19:00:22.872Z,80
2022-11-19T19:03:48.110Z,78
2022-11-19T19:07:13.359Z,78
2022-11-19T19:10:38.573Z,78
2022-11-19T19:14:03.789Z,78
2022-11-19T19:17:29.013Z,77
2022-11-19T19:20:54.268Z,77
2022-11-19T19:24:19.464Z,77
2022-11-19T19:27:44.710Z,76
2022-11-19T19:31:13.626Z,77
2022-11-19T19:34:35.176Z,77
2022-11-19T19:38:00.457Z,77
2022-11-19T19:41:25.647Z,77
2022-11-19T19:44:50.864Z,77
2022-11-19T19:48:16.088Z,76
2022-11-19T19:51:41.346Z,76
2022-11-19T19:55:06.595Z,77
2022-11-19T19:58:31.792Z,77
2022-11-19T20:01:57.103Z,76
2022-11-19T20:05:22.268Z,77
2022-11-19T20:08:47.534Z,76
2022-11-19T20:12:12.811Z,76
2022-11-19T20:15:38.029Z,75
2022-11-19T20:19:03.239Z,75
2022-11-19T20:22:28.492Z,76
2022-11-19T20:25:53.828Z,75
2022-11-19T20:29:19.408Z,75
2022-11-19T20:32:44.447Z,75
2022-11-19T20:36:09.769Z,76
2022-11-19T20:39:35.160Z,76
2022-11-19T20:43:00.526Z,76
2022-11-19T20:46:25.766Z,75
2022-11-19T20:49:50.959Z,76
2022-11-19T20:53:16.336Z,76
2022-11-19T20:56:41.605Z,76
2022-11-19T21:00:06.871Z,76
2022-11-19T21:03:32.179Z,76
2022-11-19T21:06:57.405Z,76
2022-11-19T21:10:22.634Z,76
2022-11-19T21:13:47.919Z,76
2022-11-19T21:17:13.167Z,76
2022-11-19T21:20:38.428Z,76
2022-11-19T21:24:03.655Z,76
2022-11-19T21:27:28.939Z,76
2022-11-19T21:30:54.207Z,75
2022-11-19T21:34:19.424Z,76
2022-11-19T21:37:44.686Z,75
2022-11-19T21:41:10.200Z,75
2022-11-19T21:44:35.447Z,75
2022-11-19T21:48:00.711Z,76
2022-11-19T21:51:25.919Z,75
2022-11-19T21:54:51.186Z,76
2022-11-19T21:58:16.385Z,76
2022-11-19T22:01:41.620Z,76
2022-11-19T22:05:06.848Z,76
2022-11-19T22:08:32.118Z,76
2022-11-19T22:11:57.355Z,76
2022-11-19T22:15:22.587Z,76
2022-11-19T22:18:47.813Z,75
2022-11-19T22:22:13.064Z,75
2022-11-19T22:25:38.322Z,75
2022-11-19T22:29:03.614Z,75
2022-11-19T22:32:28.846Z,75
2022-11-19T22:35:54.113Z,75
2022-11-19T22:39:19.775Z,76
2022-11-19T22:42:44.612Z,75
2022-11-19T22:46:09.874Z,74
2022-11-19T22:49:35.145Z,75
2022-11-19T22:53:00.379Z,73
2022-11-19T22:56:25.624Z,75
2022-11-19T22:59:50.892Z,74
2022-11-19T23:03:16.131Z,75
2022-11-19T23:06:41.344Z,74
2022-11-19T23:10:06.578Z,74
2022-11-19T23:13:31.903Z,74
2022-11-19T23:16:57.068Z,74
2022-11-19T23:20:22.585Z,74
2022-11-19T23:23:47.782Z,75
2022-11-19T23:27:14.821Z,75
2022-11-19T23:30:38.346Z,75
2022-11-19T23:34:03.590Z,75
2022-11-19T23:37:28.864Z,75
2022-11-19T23:40:54.091Z,75
2022-11-19T23:44:19.387Z,75
2022-11-19T23:47:44.619Z,75
2022-11-19T23:51:09.870Z,75
2022-11-19T23:54:35.111Z,76
2022-11-19T23:58:00.358Z,77
